createdAt,value
2017-03-05T06:51:46.932Z,73.8
2017-03-05T06:52:24.828Z,74.18
2017-03-05T06:53:05.689Z,74.6
2017-03-05T06:53:46.475Z,74.12
2017-03-05T06:54:27.511Z,74.51
2017-03-05T06:55:08.346Z,74.02
2017-03-05T06:55:49.081Z,74.31
2017-03-05T06:56:29.967Z,74.27
2017-03-05T06:57:10.777Z,73.99
2017-03-05T06:57:51.520Z,74.57
2017-03-05T06:58:32.324Z,74.57
2017-03-05T06:59:13.356Z,74.37
2017-03-05T06:59:54.420Z,74.47
2017-03-05T07:00:35.278Z,74.08
2017-03-05T07:01:16.375Z,74.57
2017-03-05T07:01:57.430Z,74.37
2017-03-05T07:02:39.099Z,74.08
2017-03-05T07:03:19.019Z,74.47
2017-03-05T07:04:00.007Z,74.37
2017-03-05T07:04:40.956Z,74.37
2017-03-05T07:05:21.873Z,74.66
2017-03-05T07:06:02.701Z,74.57
2017-03-05T07:06:43.581Z,74.66
2017-03-05T07:07:24.729Z,74.47
2017-03-05T07:08:05.635Z,74.66
2017-03-05T07:08:46.466Z,74.47
2017-03-05T07:09:27.248Z,74.47
2017-03-05T07:10:07.953Z,74.37
2017-03-05T07:10:48.669Z,74.57
2017-03-05T07:11:29.424Z,74.47
2017-03-05T07:12:10.134Z,74.37
2017-03-05T07:12:50.837Z,74.37
2017-03-05T07:13:31.525Z,74.57
2017-03-05T07:14:12.375Z,74.37
2017-03-05T07:14:53.177Z,73.99
2017-03-05T07:15:34.002Z,74.27
2017-03-05T07:16:14.757Z,74.18
2017-03-05T07:16:55.469Z,74.47
2017-03-05T07:17:36.278Z,74.27
2017-03-05T07:18:17.024Z,74.27
2017-03-05T07:18:57.769Z,74.47
2017-03-05T07:19:38.571Z,74.27
2017-03-05T07:20:19.375Z,74.18
2017-03-05T07:21:06.663Z,74.18
2017-03-05T07:21:47.378Z,73.8
2017-03-05T07:22:28.185Z,73.9
2017-03-05T07:23:08.897Z,73.61
2017-03-05T07:23:49.705Z,73.61
2017-03-05T07:24:30.442Z,73.22
2017-03-05T07:25:11.200Z,73.41
2017-03-05T07:25:51.934Z,73.55
2017-03-05T07:26:32.718Z,73.45
2017-03-05T07:27:13.585Z,73.16
2017-03-05T07:27:54.343Z,73.61
2017-03-05T07:28:35.100Z,73.35
2017-03-05T07:29:15.828Z,73.45
2017-03-05T07:29:56.622Z,73.32
2017-03-05T07:30:37.306Z,73.35
2017-03-05T07:31:18.103Z,73.22
2017-03-05T07:31:58.869Z,73.35
2017-03-05T07:32:39.603Z,72.97
2017-03-05T07:33:20.346Z,72.78
2017-03-05T07:34:01.133Z,72.97
2017-03-05T07:34:41.900Z,73.13
2017-03-05T07:35:22.656Z,72.84
2017-03-05T07:36:03.412Z,72.84
2017-03-05T07:36:44.202Z,72.78
2017-03-05T07:37:25.035Z,73.03
2017-03-05T07:38:05.799Z,72.97
2017-03-05T07:38:46.539Z,72.94
2017-03-05T07:39:27.262Z,72.64
2017-03-05T07:40:08.791Z,72.84
2017-03-05T07:40:49.550Z,72.68
2017-03-05T07:41:30.447Z,72.94
2017-03-05T07:42:11.186Z,72.74
2017-03-05T07:42:51.948Z,72.39
2017-03-05T07:43:33.361Z,72.3
2017-03-05T07:44:14.131Z,72.36
2017-03-05T07:44:54.992Z,72.64
2017-03-05T07:45:35.774Z,72.64
2017-03-05T07:46:16.627Z,72.55
2017-03-05T07:46:57.384Z,72.55
2017-03-05T07:47:38.107Z,72.78
2017-03-05T07:48:18.930Z,72.68
2017-03-05T07:48:59.701Z,72.68
2017-03-05T07:49:40.510Z,72.49
2017-03-05T07:50:21.257Z,72.68
2017-03-05T09:29:19.066Z,69.74
2017-03-05T09:41:37.212Z,50.03
2017-03-05T09:42:17.973Z,50.32
2017-03-05T09:42:58.722Z,49.36
2017-03-05T09:43:39.568Z,48.49
2017-03-05T09:44:21.852Z,48.69
2017-03-05T09:45:02.616Z,48.69
2017-03-05T09:45:44.573Z,47.92
2017-03-05T09:46:26.779Z,47.44
2017-03-05T09:47:09.378Z,47.82
2017-03-05T09:47:53.096Z,47.82
2017-03-05T09:48:35.229Z,47.63
2017-03-05T09:49:15.947Z,48.78
2017-03-05T09:49:56.721Z,48.02
2017-03-05T09:50:37.520Z,47.25
2017-03-05T09:51:18.286Z,47.15
2017-03-05T09:51:59.028Z,46.58
2017-03-05T09:52:39.812Z,46.19
2017-03-05T09:53:20.612Z,46.12
2017-03-05T09:54:01.458Z,45.81
2017-03-05T09:54:42.180Z,46.29
2017-03-05T09:55:22.926Z,46.31
2017-03-05T09:56:03.659Z,46.98
2017-03-05T09:56:44.432Z,47.46
2017-03-05T09:57:25.242Z,48.33
2017-03-05T09:58:05.957Z,47.27
2017-03-05T09:58:46.690Z,49.48
2017-03-05T09:59:28.098Z,50.53
2017-03-05T10:00:10.827Z,50.82
2017-03-05T10:00:51.555Z,50.34
2017-03-05T10:01:32.263Z,49.57
2017-03-05T10:02:13.010Z,47.94
2017-03-05T10:02:53.874Z,47.25
2017-03-05T10:03:34.638Z,47.46
2017-03-05T10:04:15.424Z,45.72
2017-03-05T10:04:56.254Z,44.85
2017-03-05T10:05:37.105Z,44.66
2017-03-05T10:06:17.934Z,45.43
2017-03-05T10:06:58.769Z,47.15
2017-03-05T10:07:39.548Z,46.1
2017-03-05T14:11:39.129Z,62.29
2017-03-05T14:12:19.896Z,62.68
2017-03-05T14:13:00.690Z,63.83
2017-03-05T14:13:41.441Z,64.4
2017-03-05T14:14:22.242Z,64.4
2017-03-05T14:15:03.030Z,63.79
2017-03-05T14:15:43.757Z,64.69
2017-03-05T14:16:24.551Z,67.19
2017-03-05T14:17:05.356Z,67.09
2017-03-05T14:17:46.218Z,67.73
2017-03-05T14:18:27.057Z,68.98
2017-03-05T14:19:07.728Z,68.44
2017-03-05T14:19:48.505Z,68.69
2017-03-05T14:20:29.263Z,69.17
2017-03-05T14:21:10.077Z,68.98
2017-03-05T14:21:50.859Z,71.19
2017-03-05T14:22:31.611Z,71.57
2017-03-05T14:23:12.449Z,71.86
2017-03-05T14:23:53.180Z,71.19
2017-03-05T14:24:34.977Z,71.37
2017-03-05T14:25:39.087Z,70.32
2017-03-05T14:26:19.907Z,69.56
2017-03-05T14:27:00.661Z,69.74
2017-03-05T14:27:41.336Z,69.36
2017-03-05T14:28:22.208Z,69.84
2017-03-05T14:29:02.972Z,69.26
2017-03-05T14:29:43.934Z,69.84
2017-03-05T14:30:24.730Z,69.84
2017-03-05T14:31:05.514Z,69.93
2017-03-05T14:31:46.386Z,69.36
2017-03-05T14:32:27.271Z,69.84
2017-03-05T14:33:08.247Z,68.98
2017-03-05T14:33:49.048Z,69.46
2017-03-05T14:34:29.793Z,69.74
2017-03-05T14:35:10.508Z,69.65
2017-03-05T14:35:51.304Z,69.93
2017-03-05T14:36:32.046Z,69.84
2017-03-05T14:37:12.832Z,69.84
2017-03-05T14:37:53.735Z,69.07
2017-03-05T14:38:34.542Z,69.17
2017-03-05T14:39:15.330Z,69.07
2017-03-05T14:39:56.448Z,68.3
2017-03-05T14:40:39.699Z,68.69
2017-03-05T14:41:20.545Z,68.98
2017-03-05T14:42:02.392Z,69.07
2017-03-05T14:42:42.941Z,68.98
2017-03-05T14:43:23.688Z,68.59
2017-03-05T14:44:19.376Z,68.69
2017-03-05T14:45:00.168Z,68.69
2017-03-05T14:45:40.988Z,68.79
2017-03-05T14:46:21.717Z,68.69
2017-03-05T14:47:02.440Z,68.4
2017-03-05T14:47:43.205Z,68.02
2017-03-05T14:48:23.980Z,68.44
2017-03-05T14:49:04.700Z,68.02
2017-03-05T14:49:45.526Z,67.73
2017-03-05T14:50:26.248Z,67.16
2017-03-05T14:51:07.019Z,68.4
2017-03-05T14:51:47.784Z,68.4
2017-03-05T14:52:28.629Z,68.98
2017-03-05T14:53:09.611Z,67.73
2017-03-05T14:53:50.370Z,67.44
2017-03-05T14:56:18.655Z,68.4
2017-03-05T15:38:14.940Z,66.52
2017-03-05T15:48:02.628Z,65.84
2017-03-05T15:50:20.326Z,66.67
2017-03-05T15:51:01.118Z,66.1
2017-03-05T15:51:41.957Z,66.1
2017-03-05T15:52:22.762Z,66.29
2017-03-05T15:53:03.538Z,66.29
2017-03-05T19:25:20.141Z,71.05
2017-03-05T19:26:00.888Z,70.96
2017-03-05T19:26:41.682Z,71.15
2017-03-05T19:27:22.439Z,71.05
2017-03-05T19:28:03.278Z,71.28
2017-03-05T19:28:45.167Z,71.15
2017-03-05T19:29:26.223Z,71.15
2017-03-05T19:30:08.206Z,71.15
2017-03-05T19:30:49.092Z,70.96
2017-03-05T19:31:29.969Z,71.25
2017-03-05T19:32:10.779Z,71.25
2017-03-05T19:32:52.200Z,70.86
2017-03-05T19:33:33.232Z,71.53
2017-03-05T19:34:14.364Z,71.34
2017-03-05T19:34:55.375Z,71.57
2017-03-05T19:35:36.385Z,71.44
2017-03-05T19:36:17.297Z,71.53
2017-03-05T19:36:58.265Z,71.53
2017-03-05T19:37:39.120Z,71.47
2017-03-05T19:38:20.000Z,71.25
2017-03-05T19:39:00.945Z,71.25
2017-03-05T19:39:41.831Z,71.44
2017-03-05T19:40:22.634Z,71.34
2017-03-05T19:41:03.397Z,71.34
2017-03-05T19:41:44.307Z,71.63
2017-03-05T19:42:25.443Z,71.44
2017-03-05T19:43:06.200Z,71.63
2017-03-05T19:43:47.174Z,71.63
2017-03-05T19:44:27.869Z,71.25
2017-03-05T19:45:08.664Z,71.25
2017-03-05T19:45:49.446Z,71.25
2017-03-05T19:46:30.179Z,71.25
2017-03-05T19:47:11.005Z,71.44
2017-03-05T19:47:51.786Z,71.44
2017-03-05T19:48:32.509Z,71.05
2017-03-05T19:49:13.262Z,71.05
2017-03-05T19:49:54.062Z,71.34
2017-03-05T19:50:34.834Z,71.25
2017-03-05T19:51:15.886Z,71.72
2017-03-05T19:51:56.678Z,71.34
2017-03-05T19:52:37.433Z,71.72
2017-03-05T19:53:18.242Z,71.34
2017-03-05T19:53:59.798Z,71.34
2017-03-05T19:54:42.585Z,72.05
2017-03-05T19:55:23.255Z,72.3
2017-03-05T19:56:04.007Z,72.14
2017-03-05T19:56:45.223Z,71.53
2017-03-05T19:57:26.018Z,72.24
2017-03-05T19:58:06.798Z,71.37
2017-03-05T19:58:47.493Z,71.28
2017-03-05T19:59:28.293Z,71.57
2017-03-05T20:00:09.033Z,71.28
2017-03-05T20:00:49.768Z,71.28
2017-03-05T20:01:30.539Z,71.19
2017-03-05T20:02:11.376Z,71.76
2017-03-05T20:02:52.158Z,71.57
2017-03-05T20:03:32.956Z,71.37
2017-03-05T20:04:13.659Z,71.19
2017-03-05T20:04:54.380Z,71.19
2017-03-05T20:05:35.120Z,71.09
2017-03-05T20:06:15.853Z,71.15
2017-03-05T20:06:56.737Z,71.57
2017-03-05T20:07:37.502Z,71.47
2017-03-05T20:08:18.299Z,72.53
2017-03-05T20:08:59.054Z,73
2017-03-05T20:09:39.727Z,72.72
2017-03-05T20:10:20.467Z,72.72
2017-03-05T20:11:01.205Z,72.68
2017-03-05T20:11:42.041Z,72.78
2017-03-05T20:12:22.822Z,72.72
2017-03-05T20:13:03.585Z,72.91
2017-03-05T20:13:44.391Z,72.43
2017-03-05T20:14:25.106Z,72.78
2017-03-05T20:15:05.900Z,72.68
2017-03-05T20:15:46.691Z,72.78
2017-03-05T20:16:27.514Z,72.81
2017-03-05T20:17:08.385Z,72.68
2017-03-05T20:17:49.137Z,72.39
2017-03-05T20:18:29.920Z,72.78
2017-03-05T20:19:10.683Z,72.72
2017-03-05T20:19:51.417Z,72.68
2017-03-05T20:20:32.224Z,72.88
2017-03-05T20:21:12.977Z,72.43
2017-03-05T20:21:53.747Z,72.39
2017-03-05T20:22:34.557Z,72.78
2017-03-05T20:23:15.317Z,72.39
2017-03-05T20:23:56.095Z,72.88
2017-03-05T20:24:39.378Z,72.2
2017-03-05T20:25:20.168Z,72.39
2017-03-05T20:26:00.855Z,72.49
2017-03-05T20:26:41.651Z,72.39
2017-03-05T20:27:22.354Z,72.78
2017-03-05T20:28:03.376Z,72.3
2017-03-05T20:28:44.241Z,72.39
2017-03-05T20:29:25.266Z,72.39
2017-03-05T20:30:05.990Z,72.49
2017-03-05T20:30:46.815Z,72.39
2017-03-05T20:31:27.645Z,72.49
2017-03-05T20:32:08.339Z,72.49
2017-03-05T20:32:49.123Z,72.39
2017-03-05T20:33:29.865Z,71.92
2017-03-05T20:34:10.651Z,72.3
2017-03-05T20:34:51.378Z,72.14
2017-03-05T20:35:32.141Z,72.3
2017-03-05T20:36:12.923Z,72.63
2017-03-05T20:36:53.678Z,72.11
2017-03-05T20:37:34.516Z,72.2
2017-03-05T20:38:15.277Z,72.11
2017-03-05T20:38:56.023Z,72.49
2017-03-05T20:39:36.789Z,72.59
2017-03-05T20:40:17.558Z,72.72
2017-03-05T20:40:58.312Z,72.01
2017-03-05T20:41:39.069Z,72.59
2017-03-05T20:42:19.823Z,72.68
2017-03-05T20:43:00.535Z,72.49
2017-03-05T20:43:41.300Z,72.11
2017-03-05T20:44:22.032Z,72.49
2017-03-05T20:45:02.805Z,72.49
2017-03-05T20:45:43.629Z,72.43
2017-03-05T20:46:24.403Z,72.2
2017-03-05T20:47:05.196Z,72.11
2017-03-05T20:47:45.880Z,72.01
2017-03-05T20:48:26.635Z,72.2
2017-03-05T20:49:07.361Z,72.3
2017-03-05T20:49:48.108Z,71.92
2017-03-05T20:50:28.860Z,72.39
2017-03-05T20:51:09.720Z,71.92
2017-03-05T20:51:50.421Z,72.11
2017-03-05T20:52:31.265Z,72.3
2017-03-05T20:53:12.046Z,72.2
2017-03-05T20:53:52.793Z,72.3
2017-03-05T20:54:34.246Z,72.3
2017-03-05T20:55:14.985Z,72.2
2017-03-05T20:55:55.781Z,72.2
2017-03-05T20:56:36.475Z,72.39
2017-03-05T20:57:17.254Z,72.59
2017-03-05T20:57:57.945Z,72.3
2017-03-05T20:58:38.771Z,72.11
2017-03-05T20:59:19.464Z,72.3
2017-03-05T21:00:00.159Z,72.11
2017-03-05T21:00:40.992Z,72.59
2017-03-05T21:01:21.706Z,72.39
2017-03-05T21:02:02.641Z,72.39
2017-03-05T21:02:43.459Z,72.39
2017-03-05T21:03:24.409Z,72.01
2017-03-05T21:04:04.996Z,72.39
2017-03-05T21:04:45.813Z,72.68
2017-03-05T21:05:26.618Z,72.49
2017-03-05T21:06:07.405Z,72.49
2017-03-05T21:06:48.186Z,71.82
2017-03-05T21:07:28.938Z,72.3
2017-03-05T21:08:09.685Z,71.92
2017-03-05T21:08:50.435Z,71.82
2017-03-05T21:09:31.184Z,71.82
2017-03-05T21:10:11.906Z,71.92
2017-03-05T21:10:52.693Z,71.72
2017-03-05T21:11:33.443Z,72.01
2017-03-05T21:12:14.206Z,71.44
2017-03-05T21:12:55.431Z,71.63
2017-03-05T21:13:36.434Z,71.72
2017-03-05T21:14:17.244Z,71.82
2017-03-05T21:14:58.016Z,71.63
2017-03-05T21:15:38.808Z,72.01
2017-03-05T21:16:19.514Z,71.92
2017-03-05T21:17:00.296Z,72.01
2017-03-05T21:17:41.017Z,71.92
2017-03-05T21:18:21.782Z,71.72
2017-03-05T21:19:02.519Z,71.44
2017-03-05T21:19:43.332Z,71.44
2017-03-05T21:20:24.005Z,71.72
2017-03-05T21:21:04.742Z,71.53
2017-03-05T21:21:45.553Z,71.53
2017-03-05T21:22:26.272Z,71.63
2017-03-05T21:23:07.100Z,72.3
2017-03-05T21:23:47.806Z,71.72
2017-03-05T21:24:28.570Z,71.34
2017-03-05T21:25:09.296Z,71.25
2017-03-05T21:25:50.054Z,71.47
2017-03-05T21:26:30.782Z,71.44
2017-03-05T21:27:11.548Z,71.25
2017-03-05T21:27:52.368Z,71.09
2017-03-05T21:28:33.121Z,71.37
2017-03-05T21:29:13.833Z,71.05
2017-03-05T21:29:54.635Z,71.09
2017-03-05T21:30:35.445Z,71.53
2017-03-05T21:31:16.743Z,71.92
2017-03-05T21:33:34.049Z,72.49
2017-03-05T21:34:14.891Z,72.59
2017-03-05T21:34:55.633Z,71.82
2017-03-05T21:35:37.177Z,71.82
2017-03-05T21:36:17.187Z,71.72
2017-03-05T21:36:59.732Z,72.01
2017-03-05T21:37:44.334Z,72.49
2017-03-05T21:38:25.100Z,72.3
2017-03-05T21:39:05.919Z,71.44
2017-03-05T21:39:46.781Z,71.82
2017-03-05T21:40:27.539Z,71.63
2017-03-05T21:41:08.275Z,71.72
2017-03-05T21:41:49.033Z,71.82
2017-03-05T21:42:29.813Z,71.44
2017-03-05T21:43:10.555Z,72.01
2017-03-05T21:43:51.292Z,71.82
2017-03-05T21:44:32.069Z,71.72
2017-03-05T21:45:12.779Z,71.82
2017-03-05T21:45:53.507Z,71.92
2017-03-05T21:46:34.279Z,71.92
2017-03-05T21:47:15.014Z,71.92
2017-03-05T21:47:55.797Z,71.53
2017-03-05T21:48:36.519Z,71.82
2017-03-05T21:49:17.204Z,71.82
2017-03-05T21:49:58.007Z,72.2
2017-03-05T21:50:38.790Z,71.92
2017-03-05T21:51:19.565Z,72.01
2017-03-05T21:52:00.299Z,72.01
2017-03-05T21:52:42.595Z,71.82
2017-03-05T21:53:23.372Z,71.82
2017-03-05T21:54:04.128Z,71.63
2017-03-05T21:54:44.914Z,71.92
2017-03-05T21:55:25.666Z,72.2
2017-03-05T21:56:06.501Z,72.2
2017-03-05T21:56:47.315Z,72.2
2017-03-05T21:57:28.067Z,72.11
2017-03-05T21:58:08.853Z,71.92
2017-03-05T21:58:49.603Z,72.39
2017-03-05T21:59:30.357Z,71.25
2017-03-05T22:00:11.777Z,71.72
2017-03-05T22:00:53.195Z,71.82
2017-03-05T22:01:33.953Z,71.53
2017-03-05T22:02:14.686Z,71.53
2017-03-05T22:03:10.605Z,71.72
2017-03-05T22:03:51.445Z,71.15
2017-03-05T22:04:32.681Z,71.25
2017-03-05T22:05:13.431Z,71.92
2017-03-05T22:05:54.177Z,71.53
2017-03-05T22:06:34.861Z,71.53
2017-03-05T22:07:15.613Z,71.82
2017-03-05T22:07:57.334Z,72.11
2017-03-05T22:08:38.265Z,72.11
2017-03-05T22:09:19.005Z,71.82
2017-03-05T22:09:59.768Z,71.15
2017-03-05T22:10:40.627Z,71.15
